Time;durP1;ratioP1;P1;durP2;ratioP2;P2;SDS_P1;SDS_P2;PMS_P1;PMS_P2;Temp;Humidity;BMP_temperature;BMP_pressure;BME280_temperature;BME280_humidity;BME280_pressure;Samples;Min_cycle;Max_cycle;Signal;HPM_P1;HPM_P2
2022/11/08 00:01:59;;;;;;;8.00;3.75;;;;;;;;;;5055368;28;20049;-75
2022/11/08 00:04:25;;;;;;;5.03;3.45;;;;;;;;;;5036697;28;20045;-74
2022/11/08 00:15:07;;;;;;;9.98;3.28;;;;;;;;;;5057244;28;20049;-74
2022/11/08 00:17:33;;;;;;;6.32;2.58;;;;;;;;;;5040002;28;20041;-74
2022/11/08 00:19:59;;;;;;;7.75;2.95;;;;;;;;;;5039540;28;20041;-73
2022/11/08 00:22:25;;;;;;;7.43;3.00;;;;;;;;;;5038947;28;20056;-74
2022/11/08 00:24:51;;;;;;;6.88;3.75;;;;;;;;;;5055240;28;20037;-75
2022/11/08 00:27:19;;;;;;;4.72;2.90;;;;;;;;;;5058061;28;20052;-74
2022/11/08 00:29:45;;;;;;;7.97;2.88;;;;;;;;;;5058780;28;20045;-74
2022/11/08 00:32:13;;;;;;;7.78;3.45;;;;;;;;;;5056678;28;20034;-74
2022/11/08 00:34:39;;;;;;;5.22;2.20;;;;;;;;;;5059754;28;20037;-74
2022/11/08 00:37:05;;;;;;;7.63;2.90;;;;;;;;;;5057516;28;20537;-74
2022/11/08 00:39:31;;;;;;;7.82;2.83;;;;;;;;;;5042064;28;20119;-75
2022/11/08 00:41:57;;;;;;;8.40;3.33;;;;;;;;;;5056910;28;20049;-75
2022/11/08 00:44:23;;;;;;;6.38;2.53;;;;;;;;;;5058109;28;20048;-75
2022/11/08 00:46:50;;;;;;;7.65;3.53;;;;;;;;;;5034442;28;20056;-75
2022/11/08 00:49:16;;;;;;;8.93;3.00;;;;;;;;;;5057853;28;20527;-74
2022/11/08 00:51:42;;;;;;;6.40;2.70;;;;;;;;;;5056333;28;20152;-73
2022/11/08 00:54:11;;;;;;;6.60;2.85;;;;;;;;;;5057814;28;20052;-74
2022/11/08 00:56:39;;;;;;;7.53;3.05;;;;;;;;;;5061505;28;20069;-73
2022/11/08 00:59:05;;;;;;;9.60;2.88;;;;;;;;;;5061679;28;20051;-74
2022/11/08 01:01:31;;;;;;;8.88;3.47;;;;;;;;;;5043627;28;20048;-74
2022/11/08 01:03:57;;;;;;;9.63;2.88;;;;;;;;;;5044066;28;20055;-74
2022/11/08 01:06:24;;;;;;;6.47;3.30;;;;;;;;;;5044218;28;20045;-74
2022/11/08 01:08:50;;;;;;;6.05;2.47;;;;;;;;;;5061758;28;20045;-74
2022/11/08 01:11:17;;;;;;;4.00;2.50;;;;;;;;;;5060603;28;20773;-73
2022/11/08 01:13:44;;;;;;;10.05;2.95;;;;;;;;;;5060171;28;20041;-73
2022/11/08 01:16:12;;;;;;;4.30;3.00;;;;;;;;;;5044668;28;20041;-75
2022/11/08 01:18:38;;;;;;;7.45;2.28;;;;;;;;;;5037219;28;20041;-74
2022/11/08 01:21:04;;;;;;;8.18;2.83;;;;;;;;;;5061198;28;20482;-74
2022/11/08 01:23:30;;;;;;;5.80;2.20;;;;;;;;;;5059259;28;20053;-74
2022/11/08 01:25:56;;;;;;;8.27;2.47;;;;;;;;;;5041014;28;20068;-74
2022/11/08 01:28:22;;;;;;;5.20;2.95;;;;;;;;;;5040929;28;20538;-74
2022/11/08 01:30:48;;;;;;;4.38;2.40;;;;;;;;;;5040177;28;20033;-74
2022/11/08 01:33:14;;;;;;;4.95;2.80;;;;;;;;;;5070750;28;20124;-73
2022/11/08 01:35:43;;;;;;;7.13;2.22;;;;;;;;;;5073429;28;20063;-74
2022/11/08 01:38:09;;;;;;;8.10;2.80;;;;;;;;;;5052432;28;20048;-74
2022/11/08 01:40:45;;;;;;;9.13;2.22;;;;;;;;;;5072533;28;20140;-74
2022/11/08 01:43:29;;;;;;;5.13;2.47;;;;;;;;;;5056097;28;20048;-74
2022/11/08 01:46:14;;;;;;;5.13;2.38;;;;;;;;;;5054836;28;20064;-75
2022/11/08 01:48:44;;;;;;;6.13;3.28;;;;;;;;;;5069056;28;20060;-74
2022/11/08 01:51:11;;;;;;;6.18;2.38;;;;;;;;;;5075182;28;20044;-74
2022/11/08 01:53:38;;;;;;;5.07;2.20;;;;;;;;;;5075018;28;20128;-74
2022/11/08 01:56:04;;;;;;;4.70;2.70;;;;;;;;;;5056113;28;20036;-74
2022/11/08 01:58:32;;;;;;;8.02;2.95;;;;;;;;;;5076703;28;20040;-74
2022/11/08 02:00:59;;;;;;;4.05;2.38;;;;;;;;;;5055985;28;20044;-74
2022/11/08 02:03:26;;;;;;;4.78;1.85;;;;;;;;;;5047987;28;20103;-74
2022/11/08 02:05:52;;;;;;;4.50;2.00;;;;;;;;;;5039070;28;20060;-74
2022/11/08 02:08:25;;;;;;;5.40;2.22;;;;;;;;;;5057273;28;20043;-74
2022/11/08 02:10:52;;;;;;;5.85;2.60;;;;;;;;;;5056869;28;20048;-74
2022/11/08 02:13:19;;;;;;;5.05;2.53;;;;;;;;;;5057901;28;20083;-74
2022/11/08 02:15:45;;;;;;;4.55;1.80;;;;;;;;;;5055432;28;20049;-73
2022/11/08 02:18:12;;;;;;;4.35;2.33;;;;;;;;;;5057533;28;20049;-74
2022/11/08 02:20:40;;;;;;;7.38;3.33;;;;;;;;;;5056615;28;20048;-74
2022/11/08 02:23:15;;;;;;;2.65;1.80;;;;;;;;;;5038338;28;20045;-75
2022/11/08 02:25:41;;;;;;;4.75;1.73;;;;;;;;;;5055742;28;20045;-74
2022/11/08 02:28:07;;;;;;;3.40;1.95;;;;;;;;;;5031446;28;20483;-74
2022/11/08 02:30:37;;;;;;;3.45;1.80;;;;;;;;;;5056989;28;20091;-74
2022/11/08 02:33:22;;;;;;;3.65;1.80;;;;;;;;;;5056675;28;20086;-73
2022/11/08 02:35:50;;;;;;;3.88;1.90;;;;;;;;;;5056036;28;20527;-74
2022/11/08 02:38:17;;;;;;;5.93;2.65;;;;;;;;;;5034787;28;20048;-74
2022/11/08 02:40:47;;;;;;;4.80;2.17;;;;;;;;;;5056002;28;20051;-73
2022/11/08 02:43:13;;;;;;;4.88;2.40;;;;;;;;;;5029247;28;20044;-75
2022/11/08 02:45:39;;;;;;;4.07;2.25;;;;;;;;;;5055301;28;20041;-74
2022/11/08 02:48:06;;;;;;;4.72;1.88;;;;;;;;;;5055947;28;20041;-75
2022/11/08 02:50:32;;;;;;;3.83;1.60;;;;;;;;;;5056057;28;20044;-75
2022/11/08 02:52:58;;;;;;;4.93;2.15;;;;;;;;;;5055407;28;20559;-74
2022/11/08 02:55:24;;;;;;;4.45;2.28;;;;;;;;;;5056003;28;20044;-75
2022/11/08 02:57:50;;;;;;;3.55;2.00;;;;;;;;;;5055895;28;20056;-75
2022/11/08 03:00:16;;;;;;;5.07;1.92;;;;;;;;;;5055924;28;20051;-75
2022/11/08 03:02:42;;;;;;;5.25;2.35;;;;;;;;;;5055371;28;20045;-74
2022/11/08 03:05:08;;;;;;;2.65;1.88;;;;;;;;;;5055121;28;20221;-74
2022/11/08 03:07:34;;;;;;;3.42;1.70;;;;;;;;;;5054304;28;20051;-75
2022/11/08 03:10:01;;;;;;;4.15;2.08;;;;;;;;;;5054839;28;20805;-74
2022/11/08 03:12:27;;;;;;;5.70;2.10;;;;;;;;;;5054079;28;20613;-74
2022/11/08 03:14:53;;;;;;;6.05;1.70;;;;;;;;;;5054777;28;20045;-74
2022/11/08 03:17:19;;;;;;;3.45;2.03;;;;;;;;;;5030613;28;20041;-74
2022/11/08 03:19:45;;;;;;;4.50;1.85;;;;;;;;;;5055080;28;20045;-73
2022/11/08 03:22:11;;;;;;;4.28;1.92;;;;;;;;;;5036684;28;20072;-73
2022/11/08 03:24:37;;;;;;;3.72;2.00;;;;;;;;;;5030954;28;20065;-73
2022/11/08 03:27:03;;;;;;;3.35;2.13;;;;;;;;;;5029423;28;20057;-74
2022/11/08 03:29:29;;;;;;;3.55;1.70;;;;;;;;;;5038320;28;20045;-74
2022/11/08 03:31:55;;;;;;;4.70;1.80;;;;;;;;;;5029618;28;20045;-73
2022/11/08 03:34:21;;;;;;;3.45;2.28;;;;;;;;;;5036961;28;20040;-74
2022/11/08 03:36:47;;;;;;;4.75;1.83;;;;;;;;;;5054426;28;20147;-73
2022/11/08 03:39:14;;;;;;;4.13;1.77;;;;;;;;;;5053632;28;20088;-75
2022/11/08 03:41:40;;;;;;;3.97;2.17;;;;;;;;;;5053120;28;20037;-74
2022/11/08 03:44:06;;;;;;;3.00;1.67;;;;;;;;;;5055674;28;20045;-75
2022/11/08 03:46:32;;;;;;;2.42;1.88;;;;;;;;;;5054296;28;20045;-74
2022/11/08 03:48:58;;;;;;;10.10;2.55;;;;;;;;;;5054124;28;20049;-74
2022/11/08 03:51:24;;;;;;;3.95;2.03;;;;;;;;;;5058609;28;20132;-74
2022/11/08 03:53:50;;;;;;;4.32;2.22;;;;;;;;;;5056870;28;20037;-74
2022/11/08 03:56:16;;;;;;;5.05;1.73;;;;;;;;;;5055826;28;20130;-73
2022/11/08 03:58:42;;;;;;;4.10;2.05;;;;;;;;;;5056382;28;20575;-74
2022/11/08 04:01:08;;;;;;;6.35;2.22;;;;;;;;;;5058048;28;20048;-73
2022/11/08 04:03:34;;;;;;;3.72;1.60;;;;;;;;;;5058178;28;20057;-74
2022/11/08 04:06:01;;;;;;;4.00;1.90;;;;;;;;;;5040687;28;20091;-74
2022/11/08 04:08:28;;;;;;;4.95;1.60;;;;;;;;;;5055791;28;20077;-74
2022/11/08 04:10:55;;;;;;;6.00;2.42;;;;;;;;;;5040208;28;20915;-74
2022/11/08 04:16:06;;;;;;;3.55;2.10;;;;;;;;;;5058845;28;20057;-74
2022/11/08 04:21:18;;;;;;;5.55;2.00;;;;;;;;;;5058330;28;20049;-75
2022/11/08 04:23:44;;;;;;;3.42;1.92;;;;;;;;;;5057438;28;20132;-75
2022/11/08 04:26:10;;;;;;;3.60;2.08;;;;;;;;;;5056976;28;20052;-74
2022/11/08 04:28:37;;;;;;;3.60;1.70;;;;;;;;;;5058047;28;20041;-74
2022/11/08 04:31:05;;;;;;;4.63;1.92;;;;;;;;;;5057780;28;21098;-74
2022/11/08 04:33:31;;;;;;;3.10;1.65;;;;;;;;;;5056979;28;20041;-75
2022/11/08 04:36:05;;;;;;;4.25;1.83;;;;;;;;;;5038556;28;20041;-74
2022/11/08 04:38:32;;;;;;;5.45;2.72;;;;;;;;;;5033198;28;20053;-75
2022/11/08 04:41:00;;;;;;;3.38;1.88;;;;;;;;;;5056253;28;20084;-73
2022/11/08 04:43:26;;;;;;;3.22;1.88;;;;;;;;;;5054534;28;21241;-73
2022/11/08 04:45:52;;;;;;;3.42;2.10;;;;;;;;;;5057862;28;20646;-74
2022/11/08 04:48:18;;;;;;;2.95;1.65;;;;;;;;;;5038596;28;20098;-75
2022/11/08 04:50:44;;;;;;;3.67;1.88;;;;;;;;;;5056685;28;20092;-74
2022/11/08 04:53:10;;;;;;;4.88;2.20;;;;;;;;;;5057455;28;20041;-74
2022/11/08 04:55:36;;;;;;;5.60;2.72;;;;;;;;;;5056008;28;20494;-74
2022/11/08 04:58:02;;;;;;;5.00;2.25;;;;;;;;;;5031874;28;20074;-74
2022/11/08 05:00:28;;;;;;;4.60;1.92;;;;;;;;;;5054724;28;20091;-75
2022/11/08 05:02:54;;;;;;;4.13;1.90;;;;;;;;;;5056011;28;20618;-74
2022/11/08 05:05:20;;;;;;;3.80;1.60;;;;;;;;;;5058023;28;20046;-75
2022/11/08 05:07:46;;;;;;;9.27;2.67;;;;;;;;;;5056393;28;20527;-74
2022/11/08 05:10:13;;;;;;;2.78;1.67;;;;;;;;;;5057551;28;20076;-75
2022/11/08 05:12:39;;;;;;;4.40;2.30;;;;;;;;;;5057372;28;20045;-74
2022/11/08 05:15:05;;;;;;;5.20;2.25;;;;;;;;;;5028097;28;20063;-74
2022/11/08 05:17:32;;;;;;;3.55;1.67;;;;;;;;;;5056028;28;20124;-74
2022/11/08 05:25:27;;;;;;;4.28;1.70;;;;;;;;;;5057246;28;20057;-74
2022/11/08 05:27:53;;;;;;;5.90;2.22;;;;;;;;;;5053445;28;20968;-74
2022/11/08 05:30:19;;;;;;;3.75;1.80;;;;;;;;;;5055054;28;20053;-75
2022/11/08 05:32:45;;;;;;;5.43;2.13;;;;;;;;;;5036349;28;20048;-74
2022/11/08 05:35:11;;;;;;;3.17;1.92;;;;;;;;;;5056072;28;20041;-74
2022/11/08 05:37:40;;;;;;;3.28;2.17;;;;;;;;;;5055939;28;20109;-74
2022/11/08 05:40:07;;;;;;;2.78;2.00;;;;;;;;;;5038136;28;20033;-74
2022/11/08 05:42:33;;;;;;;3.72;1.85;;;;;;;;;;5037296;28;20268;-74
2022/11/08 05:44:59;;;;;;;2.97;1.63;;;;;;;;;;5056093;28;20041;-74
2022/11/08 05:47:25;;;;;;;3.85;1.75;;;;;;;;;;5032017;28;20130;-74
2022/11/08 05:49:51;;;;;;;2.75;1.80;;;;;;;;;;5054442;28;20049;-74
2022/11/08 05:52:17;;;;;;;5.50;1.80;;;;;;;;;;5039019;28;20903;-73
2022/11/08 05:54:43;;;;;;;4.85;2.60;;;;;;;;;;5055124;28;20037;-73
2022/11/08 05:57:09;;;;;;;3.47;1.50;;;;;;;;;;5056152;28;20056;-74
2022/11/08 05:59:35;;;;;;;5.15;3.75;;;;;;;;;;5055413;28;20091;-74
2022/11/08 06:02:01;;;;;;;4.03;2.10;;;;;;;;;;5031789;28;20052;-74
2022/11/08 06:04:27;;;;;;;6.13;1.92;;;;;;;;;;5054993;28;20120;-75
2022/11/08 06:06:53;;;;;;;3.80;1.85;;;;;;;;;;5030311;28;20132;-76
2022/11/08 06:09:20;;;;;;;4.65;2.38;;;;;;;;;;5033332;28;20039;-75
2022/11/08 06:11:46;;;;;;;7.65;2.22;;;;;;;;;;5055790;28;20051;-75
2022/11/08 06:14:12;;;;;;;4.05;2.03;;;;;;;;;;5056162;28;20045;-75
2022/11/08 06:16:38;;;;;;;3.15;1.88;;;;;;;;;;5054400;28;20037;-76
2022/11/08 06:19:04;;;;;;;5.72;2.05;;;;;;;;;;5056459;28;20044;-76
2022/11/08 06:21:30;;;;;;;5.68;2.25;;;;;;;;;;5055655;28;20044;-77
2022/11/08 06:23:56;;;;;;;4.18;1.75;;;;;;;;;;5057376;28;20041;-75
2022/11/08 06:26:23;;;;;;;8.20;1.88;;;;;;;;;;5038769;28;20623;-76
2022/11/08 06:28:49;;;;;;;5.05;2.58;;;;;;;;;;5052802;28;20049;-75
2022/11/08 06:31:15;;;;;;;3.28;1.83;;;;;;;;;;5054866;28;20045;-75
2022/11/08 06:33:41;;;;;;;7.43;2.10;;;;;;;;;;5054472;28;20561;-76
2022/11/08 06:36:07;;;;;;;5.63;1.83;;;;;;;;;;5053288;28;20049;-75
2022/11/08 06:38:33;;;;;;;3.03;1.80;;;;;;;;;;5056245;28;20130;-75
2022/11/08 06:41:00;;;;;;;3.88;2.00;;;;;;;;;;5054546;28;20040;-76
2022/11/08 06:43:26;;;;;;;4.30;2.00;;;;;;;;;;5057065;28;20049;-76
2022/11/08 06:45:52;;;;;;;6.05;2.55;;;;;;;;;;5055342;28;20072;-74
2022/11/08 06:48:18;;;;;;;3.10;2.00;;;;;;;;;;5053900;28;20148;-74
2022/11/08 06:50:45;;;;;;;3.22;1.90;;;;;;;;;;5056214;28;20147;-74
2022/11/08 06:53:12;;;;;;;4.55;1.38;;;;;;;;;;5051821;28;20059;-75
2022/11/08 06:55:38;;;;;;;5.28;1.83;;;;;;;;;;5055898;28;20048;-74
2022/11/08 06:58:05;;;;;;;3.13;2.58;;;;;;;;;;5055241;28;20526;-75
2022/11/08 07:00:31;;;;;;;5.97;2.17;;;;;;;;;;5055492;28;20041;-74
2022/11/08 07:03:01;;;;;;;3.55;2.08;;;;;;;;;;5053439;28;20052;-74
2022/11/08 07:05:28;;;;;;;5.57;2.30;;;;;;;;;;5025880;28;20527;-73
2022/11/08 07:07:56;;;;;;;4.30;1.80;;;;;;;;;;5026870;28;20041;-77
2022/11/08 07:10:29;;;;;;;3.72;2.00;;;;;;;;;;5030775;28;20044;-76
2022/11/08 07:12:58;;;;;;;4.07;2.00;;;;;;;;;;5055396;28;20530;-76
2022/11/08 07:15:25;;;;;;;5.22;2.05;;;;;;;;;;5055909;28;20107;-76
2022/11/08 07:17:51;;;;;;;4.75;1.88;;;;;;;;;;5037799;28;20747;-73
2022/11/08 07:20:17;;;;;;;3.10;1.80;;;;;;;;;;5055016;28;20565;-74
2022/11/08 07:22:43;;;;;;;3.75;1.70;;;;;;;;;;5053329;28;20041;-74
2022/11/08 07:25:09;;;;;;;2.97;1.55;;;;;;;;;;5057598;28;20049;-76
2022/11/08 07:27:35;;;;;;;3.63;2.20;;;;;;;;;;5035681;28;22053;-78
2022/11/08 07:30:02;;;;;;;5.38;3.17;;;;;;;;;;5060456;28;20048;-77
2022/11/08 07:32:28;;;;;;;3.35;2.03;;;;;;;;;;5041660;28;20048;-76
2022/11/08 07:35:00;;;;;;;2.95;1.98;;;;;;;;;;5061565;28;20045;-76
2022/11/08 07:37:26;;;;;;;5.25;1.85;;;;;;;;;;5061729;28;20077;-77
2022/11/08 07:39:59;;;;;;;3.13;1.60;;;;;;;;;;5037226;28;20051;-76
2022/11/08 07:42:25;;;;;;;5.10;2.00;;;;;;;;;;5059634;28;20053;-76
2022/11/08 07:44:51;;;;;;;5.20;1.83;;;;;;;;;;5041719;28;20127;-76
2022/11/08 07:47:17;;;;;;;3.78;1.85;;;;;;;;;;5060009;28;20122;-76
2022/11/08 07:49:43;;;;;;;4.82;1.77;;;;;;;;;;5058890;28;20067;-75
2022/11/08 07:52:10;;;;;;;7.50;2.72;;;;;;;;;;5041194;28;20510;-76
2022/11/08 07:54:36;;;;;;;5.00;1.65;;;;;;;;;;5058058;28;20049;-76
2022/11/08 07:57:02;;;;;;;4.47;1.95;;;;;;;;;;5059258;28;20045;-77
2022/11/08 07:59:28;;;;;;;2.47;1.50;;;;;;;;;;5060164;28;20048;-75
2022/11/08 08:01:54;;;;;;;3.50;1.67;;;;;;;;;;5042262;28;20138;-76
2022/11/08 08:04:20;;;;;;;2.70;1.33;;;;;;;;;;5059341;28;20053;-77
2022/11/08 08:06:46;;;;;;;4.72;2.05;;;;;;;;;;5059721;28;20041;-78
2022/11/08 08:09:12;;;;;;;3.53;1.60;;;;;;;;;;5035173;28;20099;-77
2022/11/08 08:11:40;;;;;;;3.78;1.50;;;;;;;;;;5058769;28;20037;-77
2022/11/08 08:14:06;;;;;;;6.55;1.95;;;;;;;;;;5058716;28;20045;-77
2022/11/08 08:16:35;;;;;;;7.65;2.35;;;;;;;;;;5059642;28;20956;-77
2022/11/08 08:19:01;;;;;;;3.25;1.55;;;;;;;;;;5059252;28;20172;-76
2022/11/08 08:21:27;;;;;;;4.68;2.08;;;;;;;;;;5058734;28;20642;-77
2022/11/08 08:23:53;;;;;;;3.13;2.08;;;;;;;;;;5051106;28;20060;-76
2022/11/08 08:26:19;;;;;;;5.35;1.70;;;;;;;;;;5033526;28;20037;-78
2022/11/08 08:28:45;;;;;;;3.83;1.60;;;;;;;;;;5059771;28;20049;-79
2022/11/08 08:31:12;;;;;;;4.28;1.35;;;;;;;;;;5061277;28;20049;-77
2022/11/08 08:33:38;;;;;;;2.38;2.03;;;;;;;;;;5057705;28;20048;-77
2022/11/08 08:36:04;;;;;;;3.25;1.60;;;;;;;;;;5035668;28;20045;-75
2022/11/08 08:38:31;;;;;;;4.18;1.80;;;;;;;;;;5050338;28;20041;-76
2022/11/08 08:40:57;;;;;;;4.13;1.38;;;;;;;;;;5057020;28;20045;-77
2022/11/08 08:43:26;;;;;;;3.75;2.30;;;;;;;;;;5056088;28;20052;-77
2022/11/08 08:45:53;;;;;;;6.32;1.35;;;;;;;;;;5036679;28;20545;-76
2022/11/08 08:48:19;;;;;;;2.80;1.42;;;;;;;;;;5031816;28;20052;-75
2022/11/08 08:50:45;;;;;;;5.03;1.40;;;;;;;;;;5032772;28;20041;-76
2022/11/08 08:53:11;;;;;;;3.22;1.45;;;;;;;;;;5058553;28;20051;-75
2022/11/08 08:55:38;;;;;;;5.10;1.70;;;;;;;;;;5057210;28;20076;-75
2022/11/08 08:58:04;;;;;;;3.25;1.20;;;;;;;;;;5040170;28;20132;-74
2022/11/08 09:00:31;;;;;;;3.55;1.70;;;;;;;;;;5058618;28;20076;-75
2022/11/08 09:03:01;;;;;;;3.63;1.80;;;;;;;;;;4981438;28;1417678;-75
2022/11/08 09:05:27;;;;;;;4.82;1.73;;;;;;;;;;5039747;28;20292;-76
2022/11/08 09:07:54;;;;;;;5.47;1.35;;;;;;;;;;5031076;28;20129;-76
2022/11/08 09:10:20;;;;;;;3.17;1.73;;;;;;;;;;5039319;28;20336;-75
2022/11/08 09:12:49;;;;;;;4.47;2.30;;;;;;;;;;5038856;28;20049;-75
2022/11/08 09:15:18;;;;;;;2.67;1.50;;;;;;;;;;5036882;28;20037;-76
2022/11/08 09:17:46;;;;;;;4.03;2.17;;;;;;;;;;5031628;28;20042;-75
2022/11/08 09:20:15;;;;;;;3.15;1.63;;;;;;;;;;5039746;28;20523;-75
2022/11/08 09:22:42;;;;;;;5.13;2.13;;;;;;;;;;5031559;28;20672;-75
2022/11/08 09:25:09;;;;;;;5.95;1.73;;;;;;;;;;5037975;28;20045;-74
2022/11/08 09:27:42;;;;;;;5.93;1.60;;;;;;;;;;5028780;28;20128;-75
2022/11/08 09:30:08;;;;;;;7.15;2.17;;;;;;;;;;5039391;28;20049;-75
2022/11/08 09:32:34;;;;;;;2.80;1.63;;;;;;;;;;5039383;28;20045;-76
2022/11/08 09:35:00;;;;;;;3.47;1.65;;;;;;;;;;5040460;28;20557;-76
2022/11/08 09:37:33;;;;;;;4.82;2.05;;;;;;;;;;5030077;28;20913;-75
2022/11/08 09:39:59;;;;;;;3.28;2.28;;;;;;;;;;5033200;28;21294;-76
2022/11/08 09:42:37;;;;;;;3.28;1.63;;;;;;;;;;5038570;28;20042;-76
2022/11/08 09:45:30;;;;;;;8.85;2.97;;;;;;;;;;5031857;28;20049;-77
2022/11/08 09:47:58;;;;;;;4.55;1.95;;;;;;;;;;5031073;28;20473;-78
2022/11/08 09:50:30;;;;;;;4.03;2.17;;;;;;;;;;5031413;28;20049;-77
2022/11/08 09:53:14;;;;;;;4.30;1.67;;;;;;;;;;5031922;28;20492;-78
2022/11/08 09:55:45;;;;;;;4.30;2.08;;;;;;;;;;5039206;28;20053;-78
2022/11/08 09:58:23;;;;;;;5.68;2.40;;;;;;;;;;5029711;28;20461;-77
2022/11/08 10:00:50;;;;;;;6.78;2.40;;;;;;;;;;5037914;28;20099;-78
2022/11/08 10:03:17;;;;;;;4.28;1.80;;;;;;;;;;5030611;28;20650;-78
2022/11/08 10:05:51;;;;;;;6.65;2.10;;;;;;;;;;5042263;28;20052;-76
2022/11/08 10:08:29;;;;;;;2.60;1.25;;;;;;;;;;5039770;28;20042;-78
2022/11/08 10:11:09;;;;;;;4.80;1.95;;;;;;;;;;5038643;28;20052;-77
2022/11/08 10:13:42;;;;;;;5.43;1.80;;;;;;;;;;5032499;28;20112;-79
2022/11/08 10:16:27;;;;;;;3.13;1.48;;;;;;;;;;5029947;28;20104;-78
2022/11/08 10:18:53;;;;;;;5.50;1.80;;;;;;;;;;5038152;28;20037;-77
2022/11/08 10:21:45;;;;;;;4.22;2.30;;;;;;;;;;5046754;28;21364;-77
2022/11/08 10:24:11;;;;;;;;;;;;;;;;;;5032496;28;20057;-77
2022/11/08 10:26:46;;;;;;;3.75;1.77;;;;;;;;;;5039981;28;19956;-76
2022/11/08 10:29:16;;;;;;;8.55;2.90;;;;;;;;;;5038636;28;20053;-77
2022/11/08 10:31:42;;;;;;;3.35;1.73;;;;;;;;;;5036968;28;20050;-78
2022/11/08 10:34:28;;;;;;;3.22;1.77;;;;;;;;;;5037385;28;20128;-77
2022/11/08 10:37:00;;;;;;;4.45;2.10;;;;;;;;;;5039730;28;20049;-77
2022/11/08 10:39:31;;;;;;;5.22;2.33;;;;;;;;;;5038825;28;20045;-76
2022/11/08 10:42:03;;;;;;;6.70;2.90;;;;;;;;;;5035733;28;20152;-76
2022/11/08 10:44:29;;;;;;;7.78;1.88;;;;;;;;;;5035066;28;20076;-76
2022/11/08 10:46:55;;;;;;;4.75;2.20;;;;;;;;;;5043529;28;20531;-78
2022/11/08 10:49:31;;;;;;;7.57;2.20;;;;;;;;;;5043017;28;20057;-77
2022/11/08 10:51:58;;;;;;;3.80;1.52;;;;;;;;;;5040567;28;20192;-76
2022/11/08 10:54:43;;;;;;;6.10;2.20;;;;;;;;;;5044850;28;20033;-76
2022/11/08 10:57:10;;;;;;;5.95;3.28;;;;;;;;;;5043700;28;20037;-78
2022/11/08 10:59:36;;;;;;;4.60;1.63;;;;;;;;;;5042017;28;20154;-77
2022/11/08 11:02:16;;;;;;;6.38;1.80;;;;;;;;;;5040081;28;20045;-76
2022/11/08 11:04:42;;;;;;;2.67;1.50;;;;;;;;;;5032894;28;20084;-76
2022/11/08 11:07:40;;;;;;;3.45;1.95;;;;;;;;;;5040338;28;20092;-79
2022/11/08 11:10:26;;;;;;;4.93;2.40;;;;;;;;;;5004795;28;20053;-77
2022/11/08 11:12:58;;;;;;;7.22;1.70;;;;;;;;;;5056535;28;20042;-76
2022/11/08 11:15:24;;;;;;;;;;;;;;;;;;5053540;28;20056;-77
2022/11/08 11:17:50;;;;;;;3.40;1.98;;;;;;;;;;5061383;28;19932;-77
2022/11/08 11:20:21;;;;;;;5.70;1.83;;;;;;;;;;5055518;28;20034;-77
2022/11/08 11:22:48;;;;;;;8.05;4.05;;;;;;;;;;5054620;28;20089;-78
2022/11/08 11:25:16;;;;;;;10.95;5.80;;;;;;;;;;5052959;28;20033;-76
2022/11/08 11:27:42;;;;;;;10.13;3.15;;;;;;;;;;5062077;28;20041;-76
2022/11/08 11:30:24;;;;;;;6.30;3.13;;;;;;;;;;5053563;28;20041;-75
2022/11/08 11:33:04;;;;;;;3.80;2.08;;;;;;;;;;5060467;28;20041;-76
2022/11/08 11:35:37;;;;;;;6.35;1.90;;;;;;;;;;5053551;28;20045;-77
2022/11/08 11:38:06;;;;;;;4.18;2.25;;;;;;;;;;5054741;28;20056;-76
2022/11/08 11:40:45;;;;;;;7.82;2.20;;;;;;;;;;5060406;28;20047;-76
2022/11/08 11:43:23;;;;;;;4.28;2.22;;;;;;;;;;5040787;28;20052;-76
2022/11/08 11:46:10;;;;;;;6.20;2.47;;;;;;;;;;5038976;28;20115;-77
2022/11/08 11:48:39;;;;;;;5.50;2.63;;;;;;;;;;5030681;28;20049;-77
2022/11/08 11:51:07;;;;;;;8.13;2.17;;;;;;;;;;5039175;28;20041;-77
2022/11/08 11:53:36;;;;;;;4.18;2.22;;;;;;;;;;5037637;28;20046;-76
2022/11/08 11:56:20;;;;;;;11.23;1.85;;;;;;;;;;5039353;28;20983;-76
2022/11/08 11:58:52;;;;;;;7.00;2.20;;;;;;;;;;5039145;28;20133;-76
2022/11/08 12:01:27;;;;;;;7.30;2.25;;;;;;;;;;5030154;28;20156;-77
2022/11/08 12:04:04;;;;;;;4.43;2.67;;;;;;;;;;5050700;28;20112;-76
2022/11/08 12:06:46;;;;;;;7.50;2.65;;;;;;;;;;5038451;28;20049;-76
2022/11/08 12:09:30;;;;;;;3.60;2.17;;;;;;;;;;5040822;28;20048;-75
2022/11/08 12:12:15;;;;;;;7.07;2.63;;;;;;;;;;5042744;28;20041;-76
2022/11/08 12:14:52;;;;;;;6.40;2.83;;;;;;;;;;5037462;28;20052;-76
2022/11/08 12:17:31;;;;;;;4.57;2.97;;;;;;;;;;5042877;28;20086;-77
2022/11/08 12:20:07;;;;;;;7.43;3.20;;;;;;;;;;5060301;28;20041;-78
2022/11/08 12:22:33;;;;;;;4.40;2.13;;;;;;;;;;5061518;28;20052;-77
2022/11/08 12:25:00;;;;;;;5.53;2.65;;;;;;;;;;5059021;28;20049;-76
2022/11/08 12:27:38;;;;;;;4.22;1.90;;;;;;;;;;5059974;28;20041;-76
2022/11/08 12:30:13;;;;;;;6.07;1.85;;;;;;;;;;5058318;28;20048;-74
2022/11/08 12:32:50;;;;;;;5.55;2.92;;;;;;;;;;5052585;28;20051;-75
2022/11/08 12:35:16;;;;;;;4.47;2.38;;;;;;;;;;5054929;28;20604;-75
2022/11/08 12:37:49;;;;;;;5.18;1.90;;;;;;;;;;5053946;28;20053;-76
2022/11/08 12:40:23;;;;;;;9.68;2.80;;;;;;;;;;5052927;28;20043;-75
2022/11/08 12:42:55;;;;;;;3.70;1.98;;;;;;;;;;5056943;28;20219;-74
2022/11/08 12:45:21;;;;;;;;;;;;;;;;;;5036336;28;20758;-74
2022/11/08 12:48:06;;;;;;;7.85;2.60;;;;;;;;;;5054394;28;20484;-75
2022/11/08 12:50:50;;;;;;;11.30;2.60;;;;;;;;;;5038421;28;20072;-76
2022/11/08 12:53:35;;;;;;;3.58;1.80;;;;;;;;;;5030016;28;20041;-76
2022/11/08 12:56:03;;;;;;;4.53;2.25;;;;;;;;;;5056521;28;20037;-75
2022/11/08 12:58:38;;;;;;;5.38;2.55;;;;;;;;;;5032250;28;20041;-75
2022/11/08 13:01:06;;;;;;;4.25;2.28;;;;;;;;;;5057179;28;20047;-77
2022/11/08 13:03:45;;;;;;;4.72;2.05;;;;;;;;;;5033966;28;20045;-76
2022/11/08 13:06:17;;;;;;;10.82;2.20;;;;;;;;;;5055376;28;20045;-76
2022/11/08 13:08:55;;;;;;;9.50;2.83;;;;;;;;;;5038838;28;20530;-76
2022/11/08 13:11:30;;;;;;;6.25;2.15;;;;;;;;;;5056697;28;20106;-76
2022/11/08 13:13:59;;;;;;;7.30;2.00;;;;;;;;;;5058016;28;20033;-76
2022/11/08 13:16:26;;;;;;;7.18;2.42;;;;;;;;;;5056112;28;20048;-76
2022/11/08 13:18:56;;;;;;;7.75;2.83;;;;;;;;;;5058000;28;20044;-78
2022/11/08 13:21:29;;;;;;;4.75;2.33;;;;;;;;;;5056110;28;20111;-77
2022/11/08 13:24:01;;;;;;;7.15;2.20;;;;;;;;;;5055097;28;20102;-76
2022/11/08 13:26:28;;;;;;;6.32;1.73;;;;;;;;;;5057033;28;20048;-77
2022/11/08 13:29:15;;;;;;;8.70;2.38;;;;;;;;;;5059758;28;20075;-77
2022/11/08 13:31:44;;;;;;;5.07;2.00;;;;;;;;;;5042639;28;20049;-78
2022/11/08 13:34:22;;;;;;;4.88;2.13;;;;;;;;;;5057741;28;20044;-78
2022/11/08 13:37:08;;;;;;;7.03;3.15;;;;;;;;;;5060428;28;20041;-78
2022/11/08 13:40:06;;;;;;;5.22;2.08;;;;;;;;;;5033517;28;20041;-79
2022/11/08 13:42:32;;;;;;;7.18;2.90;;;;;;;;;;5010941;28;20455;-75
2022/11/08 13:45:10;;;;;;;7.35;2.17;;;;;;;;;;5059466;28;20861;-78
2022/11/08 13:47:43;;;;;;;4.45;1.77;;;;;;;;;;5041847;28;20078;-77
2022/11/08 13:50:28;;;;;;;9.23;2.90;;;;;;;;;;5037351;28;20041;-77
2022/11/08 13:53:10;;;;;;;11.90;2.45;;;;;;;;;;5059700;28;20047;-76
2022/11/08 13:55:42;;;;;;;9.35;2.67;;;;;;;;;;5057017;28;20107;-77
2022/11/08 13:58:08;;;;;;;;;;;;;;;;;;5034851;28;20037;-77
2022/11/08 14:00:42;;;;;;;4.90;1.98;;;;;;;;;;5059431;28;19921;-77
2022/11/08 14:03:44;;;;;;;5.07;1.80;;;;;;;;;;5039838;28;20049;-76
2022/11/08 14:06:14;;;;;;;6.60;2.15;;;;;;;;;;4951045;28;20587;-77
2022/11/08 14:08:46;;;;;;;4.20;2.03;;;;;;;;;;5031104;28;20081;-77
2022/11/08 14:11:18;;;;;;;4.82;1.88;;;;;;;;;;5040830;28;20053;-77
2022/11/08 14:13:44;;;;;;;6.82;1.65;;;;;;;;;;5034424;28;20052;-77
2022/11/08 14:16:16;;;;;;;7.93;1.85;;;;;;;;;;5060651;28;20036;-76
2022/11/08 14:18:43;;;;;;;3.40;1.83;;;;;;;;;;5060613;28;20653;-77
2022/11/08 14:21:15;;;;;;;8.43;2.05;;;;;;;;;;5060614;28;20124;-77
2022/11/08 14:23:41;;;;;;;5.18;2.15;;;;;;;;;;5059679;28;20495;-77
2022/11/08 14:26:15;;;;;;;8.20;2.70;;;;;;;;;;5059963;28;20041;-80
2022/11/08 14:28:45;;;;;;;6.10;2.40;;;;;;;;;;5060104;28;20041;-77
2022/11/08 14:31:21;;;;;;;3.95;2.05;;;;;;;;;;5034613;28;20120;-77
2022/11/08 14:33:47;;;;;;;3.63;1.67;;;;;;;;;;5057625;28;20041;-77
2022/11/08 14:36:15;;;;;;;8.45;2.58;;;;;;;;;;5060165;28;20049;-77
2022/11/08 14:38:50;;;;;;;4.45;3.00;;;;;;;;;;5034545;28;20047;-76
2022/11/08 14:41:20;;;;;;;7.38;2.22;;;;;;;;;;5060213;28;20561;-76
2022/11/08 14:43:47;;;;;;;6.25;1.88;;;;;;;;;;5035189;28;20430;-77
2022/11/08 14:46:21;;;;;;;4.20;2.20;;;;;;;;;;5035137;28;20051;-76
2022/11/08 14:48:49;;;;;;;6.10;3.50;;;;;;;;;;5042088;28;20044;-75
2022/11/08 14:51:15;;;;;;;8.10;2.10;;;;;;;;;;5059331;28;20138;-76
2022/11/08 14:53:45;;;;;;;5.65;1.98;;;;;;;;;;5059419;28;20156;-76
2022/11/08 14:56:16;;;;;;;5.40;2.28;;;;;;;;;;5059629;28;20466;-75
2022/11/08 14:58:42;;;;;;;6.03;1.98;;;;;;;;;;5058874;28;20118;-78
2022/11/08 15:01:09;;;;;;;4.65;1.70;;;;;;;;;;5041181;28;20067;-77
2022/11/08 15:03:37;;;;;;;5.90;2.13;;;;;;;;;;5054127;28;20088;-77
2022/11/08 15:06:07;;;;;;;5.20;2.25;;;;;;;;;;5038624;28;20037;-77
2022/11/08 15:08:36;;;;;;;12.00;1.67;;;;;;;;;;5031116;28;20046;-77
2022/11/08 15:11:03;;;;;;;8.40;3.55;;;;;;;;;;5029448;28;20132;-76
2022/11/08 15:13:31;;;;;;;5.32;1.92;;;;;;;;;;5038637;28;20204;-77
2022/11/08 15:16:01;;;;;;;6.43;2.13;;;;;;;;;;5038901;28;20147;-77